Nearby METAR Reports

 

KHFD - Hartford/Brainar, Connecticut, USA
Distance from station: ESE 5mi, 8km
Updated: Tue, 27-Sep-2022 6:53pm EDT
Clear
Clear
 Wind from WSW
Wind: WSW 6 mph , 9 km/h
Temperature: 64°F , 18°C
Dew Point: 46°F , 8°C
Humidity: 52%
Barometer: 29.88 inHg , 1011.9 hPa
Clouds: Clear
Visibility: 10 miles , 16 km
2022/09/27 22:53 KHFD 272253Z 25005KT 10SM CLR 18/08 A2988 RMK AO2 SLP116 T01780083
KBDL - Windsor Locks, Connecticut, USA
Distance from station: NNE 12mi, 20km
Updated: Tue, 27-Sep-2022 6:51pm EDT
Partly cloudy
Partly cloudy
 Wind from WSW
Wind: WSW 9 mph , 15 km/h
Temperature: 63°F , 17°C
Dew Point: 46°F , 8°C
Humidity: 56%
Barometer: 29.87 inHg , 1011.5 hPa
Clouds: Partly cloudy
Visibility: 10 miles , 16 km
Cloud details: Partly cloudy 6000 ft
2022/09/27 22:51 KBDL 272251Z 24008KT 10SM SCT060 17/08 A2987 RMK AO2 SLP114 T01670083
 
KMMK - Meriden, Connecticut, USA
Distance from station: SSW 18mi, 28km
Updated: Tue, 27-Sep-2022 6:53pm EDT
Clear
Clear
 Wind from calm
Wind: Calm
Temperature: 61°F , 16°C
Dew Point: 48°F , 9°C
Humidity: 63%
Barometer: 29.88 inHg , 1011.9 hPa
Clouds: Clear
Visibility: 10 miles , 16 km
2022/09/27 22:53 KMMK 272253Z AUTO 00000KT 10SM CLR 16/09 A2988 RMK AO2 SLP119 T01560094
KBAF - Westfield, Massachusetts, USA
Distance from station: N 28mi, 45km
Updated: Tue, 27-Sep-2022 6:53pm EDT
Clear
Clear
 Wind from SSW
Wind: SSW 9 mph , 15 km/h
Temperature: 61°F , 16°C
Dew Point: 46°F , 8°C
Humidity: 59%
Barometer: 29.86 inHg , 1011.2 hPa
Clouds: Clear
Visibility: 10 miles , 16 km
2022/09/27 22:53 KBAF 272253Z 20008KT 10SM CLR 16/08 A2986 RMK AO2 SLP113 T01610083
 
KIJD - Willimantic, Connecticut, USA
Distance from station: E 29mi, 46km
Updated: Tue, 27-Sep-2022 6:52pm EDT
Clear
Clear
 Wind from WSW
Wind: WSW 5 mph , 7 km/h
Temperature: 63°F , 17°C
Dew Point: 50°F , 10°C
Humidity: 64%
Barometer: 29.88 inHg , 1011.9 hPa
Clouds: Clear
Visibility: 10 miles , 16 km
2022/09/27 22:52 KIJD 272252Z AUTO 25004KT 10SM CLR 17/10 A2988 RMK AO2 SLP115 T01670100
KOXC - Oxford/Waterbury, Connecticut, USA
Distance from station: SW 29mi, 46km
Updated: Tue, 27-Sep-2022 6:51pm EDT
Clear
Clear
 Wind from varies
Wind: varies 5 mph , 7 km/h
Temperature: 57°F , 14°C
Dew Point: 48°F , 9°C
Humidity: 72%
Barometer: 29.90 inHg , 1012.5 hPa
Clouds: Clear
Visibility: 10 miles , 16 km
2022/09/27 22:51 KOXC 272251Z VRB04KT 10SM CLR 14/09 A2990 RMK AO2 SLP137 T01440089
 
KSNC - Chester, Connecticut, USA
Distance from station: SSE 29mi, 47km
Updated: Tue, 27-Sep-2022 6:55pm EDT
Clear
Clear
 Wind from varies
Wind: varies 5 mph , 7 km/h
Temperature: 61°F , 16°C
Dew Point: 50°F , 10°C
Humidity: 68%
Barometer: 29.89 inHg , 1012.2 hPa
Clouds: Clear
Visibility: 10 miles , 16 km
2022/09/27 22:55 KSNC 272255Z AUTO VRB04KT 10SM CLR 16/10 A2989 RMK AO2
KCEF - Chicopee/Westove, Massachusetts, USA
Distance from station: NNE 32mi, 52km
Updated: Tue, 27-Sep-2022 6:55pm EDT
Few Clouds
Few Clouds
 Wind from SW
Wind: SW 8 mph , 13 km/h
Temperature: 61°F , 16°C
Dew Point: 46°F , 8°C
Humidity: 59%
Barometer: 29.83 inHg , 1010.2 hPa
Clouds: Few Clouds
Visibility: 10 miles , 16 km
Cloud details: Few Clouds 5000 ft
2022/09/27 22:55 KCEF 272255Z 22007KT 10SM FEW050 16/08 A2983 RMK AO2A SLP107 T01570082
 
KHVN - New Haven/Tweed, Connecticut, USA
Distance from station: S 35mi, 56km
Updated: Tue, 27-Sep-2022 6:53pm EDT
Clear
Clear
 Wind from WNW
Wind: WNW 10 mph , 17 km/h
Temperature: 66°F , 19°C
Dew Point: 52°F , 11°C
Humidity: 60%
Barometer: 29.89 inHg , 1012.2 hPa
Clouds: Clear
Visibility: 10 miles , 16 km
2022/09/27 22:53 KHVN 272253Z 30009KT 10SM CLR 19/11 A2989 RMK AO2 SLP121 T01940106
KBDR - Bridgeport, Connecticut, USA
Distance from station: SSW 46mi, 74km
Updated: Tue, 27-Sep-2022 6:52pm EDT
Clear
Clear
 Wind from W
Wind: W 6 mph , 9 km/h
Temperature: 63°F , 17°C
Dew Point: 48°F , 9°C
Humidity: 59%
Barometer: 29.89 inHg , 1012.2 hPa
Clouds: Clear
Visibility: 10 miles , 16 km
2022/09/27 22:52 KBDR 272252Z 28005KT 10SM CLR 17/09 A2989 RMK AO2 SLP122 T01720089
 
KGON - Groton/New Londo, Connecticut, USA
Distance from station: SE 46mi, 75km
Updated: Tue, 27-Sep-2022 6:56pm EDT
Few Clouds
Few Clouds
 Wind from W
Wind: W 7 mph , 11 km/h
Temperature: 66°F , 19°C
Dew Point: 48°F , 9°C
Humidity: 52%
Barometer: 29.86 inHg , 1011.2 hPa
Clouds: Few Clouds
Visibility: 10 miles , 16 km
Cloud details: Few Clouds 4900 ft
2022/09/27 22:56 KGON 272256Z 26006KT 10SM FEW049 19/09 A2986 RMK AO2 SLP113 T01940094
KDXR - Danbury, Connecticut, USA
Distance from station: SW 47mi, 76km
Updated: Tue, 27-Sep-2022 6:53pm EDT
Clear
Clear
 Wind from WSW
Wind: WSW 3 mph , 6 km/h
Temperature: 61°F , 16°C
Dew Point: 46°F , 8°C
Humidity: 59%
Barometer: 29.90 inHg , 1012.5 hPa
Clouds: Clear
Visibility: 10 miles , 16 km
2022/09/27 22:53 KDXR 272253Z 24003KT 10SM CLR 16/08 A2990 RMK AO2 SLP125 T01560083
 
KPSF - Pittsfield, Massachusetts, USA
Distance from station: NNW 54mi, 87km
Updated: Tue, 27-Sep-2022 6:54pm EDT
Overcast
Overcast
 Wind from SW
Wind: SW 7 mph , 11 km/h
Temperature: 57°F , 14°C
Dew Point: 46°F , 8°C
Humidity: 67%
Barometer: 29.85 inHg , 1010.8 hPa
Clouds: Overcast
Visibility: 10 miles , 16 km
Cloud details: Overcast 6500 ft
2022/09/27 22:54 KPSF 272254Z AUTO 22006KT 10SM OVC065 14/08 A2985 RMK AO2 SLP103 T01390083
KWST - Westerly, Rhode Island, USA
Distance from station: ESE 56mi, 91km
Updated: Tue, 27-Sep-2022 6:53pm EDT
Clear
Clear
 Wind from W
Wind: W 6 mph , 9 km/h
Temperature: 64°F , 18°C
Dew Point: 52°F , 11°C
Humidity: 64%
Barometer: 29.87 inHg , 1011.5 hPa
Clouds: Clear
Visibility: 10 miles , 16 km
2022/09/27 22:53 KWST 272253Z AUTO 26005KT 10SM CLR 18/11 A2987 RMK AO2 SLP113 T01830106 $
 
KORH - Worcester, Massachusetts, USA
Distance from station: NE 57mi, 92km
Updated: Tue, 27-Sep-2022 6:54pm EDT
Clear
Clear
 Wind from WSW
Wind: WSW 10 mph , 17 km/h
Temperature: 57°F , 14°C
Dew Point: 48°F , 9°C
Humidity: 72%
Barometer: 29.86 inHg , 1011.2 hPa
Clouds: Clear
Visibility: 10 miles , 16 km
2022/09/27 22:54 KORH 272254Z 24009KT 10SM CLR 14/09 A2986 RMK AO2 SLP113 T01440089 $
KPOU - Poughkeepsie, New York, USA
Distance from station: W 60mi, 96km
Updated: Tue, 27-Sep-2022 6:53pm EDT
Overcast
Overcast
 Wind from SSW
Wind: SSW 6 mph , 9 km/h
Temperature: 63°F , 17°C
Dew Point: 48°F , 9°C
Humidity: 59%
Barometer: 29.88 inHg , 1011.9 hPa
Clouds: Overcast
Visibility: 10 miles , 16 km
Cloud details: Overcast 6500 ft
2022/09/27 22:53 KPOU 272253Z 21005KT 10SM OVC065 17/09 A2988 RMK AO2 SLP114 T01720089
 
KORE - Orange, Massachusetts, USA
Distance from station: NNE 60mi, 97km
Updated: Tue, 27-Sep-2022 6:52pm EDT
Clear
Clear
 Wind from SW
Wind: SW 8 mph , 13 km/h
Temperature: 61°F , 16°C
Dew Point: 48°F , 9°C
Humidity: 63%
Barometer: 29.86 inHg , 1011.2 hPa
Clouds: Clear
Visibility: 10 miles , 16 km
2022/09/27 22:52 KORE 272252Z AUTO 22007KT 10SM CLR 16/09 A2986 RMK AO2 SLP111 T01610089
KHTO - East Hampton, New York, USA
Distance from station: SSE 62mi, 99km
Updated: Sat, 21-May-2022 1:35pm EDT
NOT Current
Clear
Clear
 Wind from WNW
Wind: WNW 5 mph , 7 km/h
Temperature: 81°F , 27°C
Heat Index: 83°F , 28°C
Dew Point: 66°F , 19°C
Humidity: 62%
Barometer: 30.00 inHg , 1015.9 hPa
Clouds: Clear
Visibility: 10 miles , 16 km
2022/05/21 17:35 KHTO 211735Z AUTO 30004KT 10SM CLR 27/19 A3000 RMK AO2 T02670193
 
KFOK - Westhampton Beac, New York, USA
Distance from station: S 63mi, 102km
Updated: Tue, 27-Sep-2022 6:53pm EDT
Mostly cloudy
Mostly cloudy
 Wind from WNW
Wind: WNW 8 mph , 13 km/h
Temperature: 64°F , 18°C
Dew Point: 52°F , 11°C
Humidity: 64%
Barometer: 29.91 inHg , 1012.9 hPa
Clouds: Mostly cloudy
Visibility: 10 miles , 16 km
Cloud details: Few Clouds 4700 ft
Mostly cloudy 6000 ft
2022/09/27 22:53 KFOK 272253Z 29007KT 10SM FEW047 BKN060 18/11 A2991 RMK AO2 SLP127 T01780106
KMTP - Montauk, New York, USA
Distance from station: SE 64mi, 104km
Updated: Tue, 27-Sep-2022 6:54pm EDT

 Wind from WSW
Wind: WSW 7 mph , 11 km/h
Temperature: 64°F , 18°C
Dew Point: 54°F , 12°C
Humidity: 68%
Barometer: 29.89 inHg , 1012.2 hPa
2022/09/27 22:54 KMTP 272254Z AUTO 24006KT 18/12 A2989 RMK AO1 SLP120 T01830117